CPX963 Details

Departure: Chicago/Rockford International Airport (KRFD)
Arrival: Joint Base McGuire Dix Lakehurst (KWRI) at N/A
Route: QUOTE WHETT J64 LEPEW J518 AVERE J152 HAR HAR5
Notes: EMPTY | NON-REVENUE REPOSITIONING LEG


Current Weather Information
KRFD 171554Z 12005KT 10SM BKN043 BKN050 BKN250 22/19 A2993 RMK AO2 RAE33 SLP133 VIRGA NE P0008 T02170194
KWRI 171636Z AUTO 00000KT 10SM FEW031 SCT043 29/22 A3000 RMK AO2 RAB27E36 SLP158 $